Pagina principale
METAR-TAF:

METAR-TAF

Aeroporti :

Seyresse

Dax, Francia

latitudine: 43-41N, longitudine: 001-04W, altezza: 32 m

Osservazione

Il bollettino è stato emesso 10 minuti fa, alle 13:05 UTC
Vento 10 kt da est
Temperature 32°C
Umidità 59%
Pressione 1016 hPa
Visibilità 10 km o più
nessuna nube inferiore a 1500 m e nessun cumulonembo

METAR: LFBY 271305Z 10010KT CAVOK 32/23 Q1016

Ora: 15:15 (13:15 UTC)

Previsione

Il bollettino è stato emesso 5 ore e 15 minuti fa, alle 08:00 UTC
Previsione valida dal 27 alle 09 UTC al 27 alle 18 UTC
Vento 8 kt da est
Visibilità 10 km o più
nessuna nube inferiore a 1500 m e nessun cumulonembo
Temporaneamente
dal 27 alle 13 UTC al 27 alle 18 UTC
Vento 10 kt da est con raffiche fino a 20 kt

TAF: LFBY 270800Z 2709/2718 10008KT CAVOK TEMPO 2713/2718 10010G20KT

Osservazioni e previsioni meteorologiche di più di 4000 aeroporti (messaggi METAR e TAF).

Le stazioni disponibili sono rappresentate dai dischi gialli e rossi sulla carta.

Puntare il mouse per vedere il nome della stazione.

Clicca sopra per visualizzare le osservazioni e previsioni meteorologiche.

Per cambiare la mappa : fare clic sui pulsanti verdi con una croce nera per ingrandire, il pulsante verde con un trattino per diminuire, o sulla freccia verde per le mappe adiacenti.


METAR-TAF: